Pagrindinis puslapis
METAR-TAF:

METAR-TAF

Oro uostai :

Büchel, Vokietija

platuma: 50-10N, ilguma: 007-04E, Aukštis: 478 m

Dabartinis oras

Ataskaita buvo paskelbta 34 minutes, ne 04:20 UTC
Vėjas 6 kt iš Šiaurės Rytų
Temperatūra 10°C
Drėgmė 57%
Slėgis 1021 hPa
Matomumas 10 km arba daugiau

METAR: ETSB 310420Z AUTO 04006KT 9999 // ////// 10/02 Q1021 ///

Laikas: 06:54 (04:54 UTC)


TAF: trūkstamas

Orai ataskaitas ir orų prognozės (METAR, TAF).

turimą stotys yra geltonos ir raudonos taškus žemėlapyje.

Perkelti pele per norėdami pamatyti stoties vardą.

Tada spustelėkite, norėdami matyti oro stebėjimo ir prognozės.

Norėdami pakeisti žemėlapį: spustelėkite ant žalios mygtukų su juodo kryžiaus žemyn,; žalią mygtuką su brūkšneliu, jei norite nutolinti; arba žalių rodyklių gretimoms žemėlapius.


METAR-TAF: